Time;durP1;ratioP1;P1;durP2;ratioP2;P2;SDS_P1;SDS_P2;PMS_P1;PMS_P2;Temp;Humidity;BMP_temperature;BMP_pressure;BME280_temperature;BME280_humidity;BME280_pressure;Samples;Min_cycle;Max_cycle;Signal;HPM_P1;HPM_P2
2023/10/03 00:01:49;;;;;;;12.88;7.88;;;13.40;99.90;;;;;;5180309;28;20105;-66
2023/10/03 00:04:21;;;;;;;17.25;7.95;;;13.30;99.90;;;;;;5178319;28;20053;-66
2023/10/03 00:06:55;;;;;;;12.90;7.53;;;13.30;99.90;;;;;;5172199;28;20056;-65
2023/10/03 00:09:28;;;;;;;14.77;7.50;;;13.20;99.90;;;;;;5199580;28;20029;-66
2023/10/03 00:12:00;;;;;;;13.32;7.30;;;13.20;99.90;;;;;;5187677;28;20502;-65
2023/10/03 00:14:37;;;;;;;14.27;8.00;;;13.20;99.90;;;;;;5202057;28;20030;-66
2023/10/03 00:17:08;;;;;;;14.30;7.97;;;13.20;99.90;;;;;;5166368;28;20043;-65
2023/10/03 00:19:44;;;;;;;13.85;6.90;;;13.10;99.90;;;;;;5184058;28;20044;-66
2023/10/03 00:22:23;;;;;;;13.18;6.97;;;13.00;99.90;;;;;;5142729;28;20143;-67
2023/10/03 00:25:00;;;;;;;10.23;6.40;;;13.00;99.90;;;;;;5174946;28;20053;-67
2023/10/03 00:27:35;;;;;;;12.73;6.97;;;12.90;99.90;;;;;;5149163;28;20046;-66
2023/10/03 00:30:10;;;;;;;14.02;7.55;;;13.00;99.90;;;;;;5163339;28;20106;-66
2023/10/03 00:32:45;;;;;;;12.70;7.03;;;13.00;99.90;;;;;;5179772;28;20042;-66
2023/10/03 00:35:23;;;;;;;20.02;7.82;;;13.00;99.90;;;;;;5164090;28;20044;-66
2023/10/03 00:37:57;;;;;;;14.50;7.60;;;13.00;99.90;;;;;;5181746;28;20038;-67
2023/10/03 00:40:35;;;;;;;17.73;7.30;;;13.00;99.90;;;;;;5164350;28;20029;-65
2023/10/03 00:43:11;;;;;;;13.80;8.02;;;13.00;99.90;;;;;;5186376;28;20045;-66
2023/10/03 00:45:43;;;;;;;14.40;8.18;;;12.90;99.90;;;;;;5180258;28;20147;-65
2023/10/03 00:48:17;;;;;;;14.60;7.45;;;12.90;99.90;;;;;;5200916;28;20053;-66
2023/10/03 00:50:48;;;;;;;14.02;8.10;;;12.80;99.90;;;;;;5183888;28;20037;-65
2023/10/03 00:53:22;;;;;;;12.23;7.82;;;12.90;99.90;;;;;;5166971;28;20117;-65
2023/10/03 00:55:59;;;;;;;13.38;6.75;;;12.80;99.90;;;;;;5183322;28;20057;-66
2023/10/03 00:58:32;;;;;;;11.80;6.85;;;12.80;99.90;;;;;;5169150;28;20037;-66
2023/10/03 01:01:09;;;;;;;12.63;7.75;;;12.80;99.90;;;;;;5219181;22;20033;-67
2023/10/03 01:03:47;;;;;;;14.77;7.82;;;12.70;99.90;;;;;;5221487;28;20071;-66
2023/10/03 01:06:25;;;;;;;13.50;7.50;;;12.60;99.90;;;;;;5224702;28;20033;-66
2023/10/03 01:09:00;;;;;;;12.13;7.30;;;12.60;99.90;;;;;;5242187;28;20033;-66
2023/10/03 01:11:33;;;;;;;13.57;6.55;;;12.50;99.90;;;;;;5228868;28;20054;-67
2023/10/03 01:14:10;;;;;;;12.63;7.80;;;12.50;99.90;;;;;;5209835;28;20063;-66
2023/10/03 01:16:43;;;;;;;11.75;7.18;;;12.50;99.90;;;;;;5213745;28;20055;-68
2023/10/03 01:19:40;;;;;;;14.90;6.88;;;12.50;99.90;;;;;;5216241;28;20198;-67
2023/10/03 01:22:07;;;;;;;16.55;7.95;;;12.50;99.90;;;;;;5229480;28;20044;-67
2023/10/03 01:24:38;;;;;;;14.00;7.45;;;12.50;99.90;;;;;;5222318;28;20044;-68
2023/10/03 01:27:12;;;;;;;17.83;8.68;;;12.50;99.90;;;;;;5240545;28;20092;-68
2023/10/03 01:29:47;;;;;;;15.45;8.63;;;12.40;99.90;;;;;;5225886;28;20036;-69
2023/10/03 01:32:18;;;;;;;13.40;7.63;;;12.40;99.90;;;;;;5213180;28;20040;-68
2023/10/03 01:34:55;;;;;;;13.60;7.95;;;12.50;99.90;;;;;;5186086;28;20063;-68
2023/10/03 01:37:32;;;;;;;14.30;8.60;;;12.50;99.90;;;;;;5203032;28;20335;-68
2023/10/03 01:40:13;;;;;;;12.77;7.80;;;12.40;99.90;;;;;;5220652;28;20092;-68
2023/10/03 01:42:49;;;;;;;16.80;9.18;;;12.40;99.90;;;;;;5203569;28;20059;-68
2023/10/03 01:45:28;;;;;;;15.20;7.68;;;12.30;99.90;;;;;;5239404;28;20303;-67
2023/10/03 01:48:05;;;;;;;14.85;8.15;;;12.30;99.90;;;;;;5214241;28;20297;-67
2023/10/03 01:50:36;;;;;;;11.15;7.88;;;12.30;99.90;;;;;;5238388;28;20094;-67
2023/10/03 01:53:16;;;;;;;15.68;8.07;;;12.30;99.90;;;;;;5223459;28;20043;-67
2023/10/03 01:55:48;;;;;;;17.08;8.02;;;12.20;99.90;;;;;;5223790;28;20062;-67
2023/10/03 01:58:23;;;;;;;11.32;7.55;;;12.10;99.90;;;;;;5226573;28;20047;-68
2023/10/03 02:00:56;;;;;;;13.70;6.88;;;12.20;99.90;;;;;;5210803;28;20036;-68
2023/10/03 02:03:29;;;;;;;15.77;7.57;;;12.20;99.90;;;;;;5233116;28;20039;-67
2023/10/03 02:06:02;;;;;;;13.02;7.18;;;12.10;99.90;;;;;;5251454;28;20069;-67
2023/10/03 02:08:36;;;;;;;13.60;8.50;;;12.20;99.90;;;;;;5261435;28;20039;-67
2023/10/03 02:11:11;;;;;;;16.15;8.30;;;12.30;99.90;;;;;;5244455;28;20050;-67
2023/10/03 02:13:42;;;;;;;15.30;6.95;;;12.20;99.90;;;;;;5246468;28;20032;-67
2023/10/03 02:16:20;;;;;;;15.40;8.07;;;12.20;99.90;;;;;;5239729;28;20102;-67
2023/10/03 02:18:52;;;;;;;13.40;7.65;;;12.20;99.90;;;;;;5259865;28;20036;-68
2023/10/03 02:21:28;;;;;;;11.60;7.35;;;12.20;99.90;;;;;;5238449;28;20047;-67
2023/10/03 02:24:02;;;;;;;15.50;8.23;;;12.10;99.90;;;;;;5254391;28;20029;-67
2023/10/03 02:26:41;;;;;;;13.53;7.40;;;12.10;99.90;;;;;;5221861;28;20036;-67
2023/10/03 02:29:15;;;;;;;14.02;7.55;;;12.10;99.90;;;;;;5240620;28;20257;-66
2023/10/03 02:31:49;;;;;;;16.67;8.15;;;12.10;99.90;;;;;;5220317;28;20051;-64
2023/10/03 02:34:23;;;;;;;;;;;12.10;99.90;;;;;;5223318;28;20052;-65
2023/10/03 02:36:57;;;;;;;15.45;8.50;;;12.10;99.90;;;;;;5208894;28;20026;-66
2023/10/03 02:39:39;;;;;;;15.15;8.02;;;12.20;99.90;;;;;;5260289;28;20050;-65
2023/10/03 02:42:11;;;;;;;14.77;9.13;;;12.10;99.90;;;;;;5261609;28;20050;-66
2023/10/03 02:44:45;;;;;;;16.40;9.00;;;12.20;99.90;;;;;;5230992;28;20040;-65
2023/10/03 02:47:27;;;;;;;16.95;8.27;;;12.20;99.90;;;;;;5223885;28;20036;-65
2023/10/03 02:50:04;;;;;;;14.27;7.80;;;12.10;99.90;;;;;;5242535;28;20151;-65
2023/10/03 02:52:59;;;;;;;17.63;7.50;;;12.00;99.90;;;;;;5236400;28;20090;-65
2023/10/03 02:55:49;;;;;;;12.88;7.60;;;11.90;99.90;;;;;;5238800;28;20439;-65
2023/10/03 02:58:21;;;;;;;14.23;7.20;;;11.90;99.90;;;;;;5221094;28;20034;-65
2023/10/03 03:00:54;;;;;;;14.32;8.18;;;11.90;99.90;;;;;;5240005;28;20313;-65
2023/10/03 03:03:32;;;;;;;15.80;9.20;;;11.90;99.90;;;;;;5241282;28;20066;-65
2023/10/03 03:06:13;;;;;;;15.63;8.30;;;11.90;99.90;;;;;;5240137;28;20042;-65
2023/10/03 03:08:46;;;;;;;14.95;9.18;;;11.90;99.90;;;;;;5221865;28;20049;-65
2023/10/03 03:11:18;;;;;;;20.90;10.02;;;11.90;99.90;;;;;;5211046;28;20340;-66
2023/10/03 03:13:49;;;;;;;17.95;9.10;;;11.90;99.90;;;;;;5217386;28;20146;-65
2023/10/03 03:16:24;;;;;;;17.58;9.00;;;11.90;99.90;;;;;;5237174;28;20503;-66
2023/10/03 03:18:56;;;;;;;15.57;8.75;;;11.80;99.90;;;;;;5205086;28;20084;-66
2023/10/03 03:21:32;;;;;;;17.40;8.18;;;11.80;99.90;;;;;;5238736;28;20037;-66
2023/10/03 03:24:09;;;;;;;17.40;8.27;;;11.80;99.90;;;;;;5208233;28;20044;-66
2023/10/03 03:26:47;;;;;;;17.75;10.13;;;11.80;99.90;;;;;;5238970;28;20051;-65
2023/10/03 03:29:21;;;;;;;16.80;9.55;;;11.90;99.90;;;;;;5207689;28;20095;-65
2023/10/03 03:31:53;;;;;;;;;;;11.90;99.90;;;;;;5210817;28;20025;-64
2023/10/03 03:34:31;;;;;;;16.00;9.00;;;11.90;99.90;;;;;;5237839;28;19923;-64
2023/10/03 03:37:21;;;;;;;20.38;8.30;;;11.80;99.90;;;;;;5222516;28;20032;-65
2023/10/03 03:39:54;;;;;;;16.95;9.00;;;11.80;99.90;;;;;;5190786;28;20295;-66
2023/10/03 03:42:28;;;;;;;19.73;9.45;;;11.80;99.90;;;;;;5221680;28;20040;-64
2023/10/03 03:45:06;;;;;;;;;;;11.70;99.90;;;;;;5218140;28;20033;-65
2023/10/03 03:47:39;;;;;;;20.50;9.07;;;11.70;99.90;;;;;;5217165;28;19927;-64
2023/10/03 03:50:10;;;;;;;14.35;9.18;;;11.70;99.90;;;;;;5219752;28;20040;-65
2023/10/03 03:52:42;;;;;;;16.65;9.25;;;11.60;99.90;;;;;;5219700;28;20671;-64
2023/10/03 03:55:17;;;;;;;14.52;8.75;;;11.60;99.90;;;;;;5200955;28;20049;-67
2023/10/03 03:57:51;;;;;;;14.98;8.77;;;11.60;99.90;;;;;;5194939;28;20074;-65
2023/10/03 04:00:29;;;;;;;;;;;11.60;99.90;;;;;;5237649;28;20032;-65
2023/10/03 04:03:07;;;;;;;18.30;9.45;;;11.60;99.90;;;;;;5203997;28;19912;-66
2023/10/03 04:05:46;;;;;;;18.05;9.65;;;11.70;99.90;;;;;;5217812;28;20072;-66
2023/10/03 04:08:18;;;;;;;15.65;8.15;;;11.70;99.90;;;;;;5200884;28;20334;-65
2023/10/03 04:10:49;;;;;;;18.42;8.98;;;11.60;99.90;;;;;;5221469;28;20044;-65
2023/10/03 04:13:26;;;;;;;15.20;8.80;;;11.50;99.90;;;;;;5217460;28;20324;-65
2023/10/03 04:16:06;;;;;;;17.35;8.65;;;11.40;99.90;;;;;;5198464;28;20355;-65
2023/10/03 04:18:40;;;;;;;21.17;9.45;;;11.40;99.90;;;;;;5201450;28;20037;-65
2023/10/03 04:21:12;;;;;;;15.82;8.40;;;11.40;99.90;;;;;;5216537;28;20617;-65
2023/10/03 04:23:49;;;;;;;19.95;9.35;;;11.50;99.90;;;;;;5206218;28;20059;-65
2023/10/03 04:26:20;;;;;;;14.20;9.25;;;11.40;99.90;;;;;;5187687;28;20040;-65
2023/10/03 04:28:55;;;;;;;15.07;8.63;;;11.50;99.90;;;;;;5221658;28;20132;-64
2023/10/03 04:31:28;;;;;;;19.35;9.73;;;11.40;99.90;;;;;;5234861;28;20043;-65
2023/10/03 04:34:07;;;;;;;17.40;8.85;;;11.40;99.90;;;;;;5205158;28;20045;-65
2023/10/03 04:36:41;;;;;;;20.25;8.77;;;11.40;99.90;;;;;;5222208;28;20047;-64
2023/10/03 04:39:13;;;;;;;15.90;8.47;;;11.40;99.90;;;;;;5209747;28;20044;-64
2023/10/03 04:41:45;;;;;;;16.73;7.72;;;11.40;99.90;;;;;;5204537;28;20566;-64
2023/10/03 04:44:17;;;;;;;17.13;9.77;;;11.40;99.90;;;;;;5216236;28;20032;-66
2023/10/03 04:46:50;;;;;;;18.40;9.52;;;11.40;99.90;;;;;;5205436;28;20044;-65
2023/10/03 04:49:22;;;;;;;17.55;9.40;;;11.40;99.90;;;;;;5243949;28;20028;-64
2023/10/03 04:51:56;;;;;;;14.88;9.23;;;11.40;99.90;;;;;;5225329;28;20040;-65
2023/10/03 04:54:30;;;;;;;;;;;11.40;99.90;;;;;;5241598;28;20033;-64
2023/10/03 04:57:05;;;;;;;17.90;9.90;;;11.30;99.90;;;;;;5188580;28;19912;-64
2023/10/03 04:59:36;;;;;;;16.55;9.02;;;11.40;99.90;;;;;;5204679;28;20277;-64
2023/10/03 05:02:11;;;;;;;19.77;9.32;;;11.40;99.90;;;;;;5209009;28;20048;-66
2023/10/03 05:04:42;;;;;;;19.23;10.07;;;11.40;99.90;;;;;;5247928;28;20042;-63
2023/10/03 05:07:15;;;;;;;18.48;9.25;;;11.40;99.90;;;;;;5230723;28;20050;-63
2023/10/03 05:09:49;;;;;;;17.20;8.52;;;11.40;99.90;;;;;;5264913;28;20042;-64
2023/10/03 05:12:20;;;;;;;16.48;9.52;;;11.50;99.90;;;;;;5203593;28;20036;-64
2023/10/03 05:14:54;;;;;;;20.60;10.20;;;11.60;99.90;;;;;;5248888;28;20088;-63
2023/10/03 05:17:30;;;;;;;20.90;10.52;;;11.70;99.90;;;;;;5230924;28;20040;-63
2023/10/03 05:20:06;;;;;;;19.58;10.55;;;11.70;99.90;;;;;;5231559;28;20429;-64
2023/10/03 05:22:41;;;;;;;21.15;10.65;;;11.60;99.90;;;;;;5230403;28;20050;-64
2023/10/03 05:25:17;;;;;;;19.70;9.82;;;11.60;99.90;;;;;;5266090;28;20034;-63
2023/10/03 05:27:51;;;;;;;21.50;10.60;;;11.60;99.90;;;;;;5260384;28;20063;-66
2023/10/03 05:30:25;;;;;;;20.50;11.40;;;11.70;99.90;;;;;;5220587;28;20043;-65
2023/10/03 05:32:56;;;;;;;26.63;12.73;;;11.70;99.90;;;;;;5273129;28;20054;-63
2023/10/03 05:35:29;;;;;;;22.10;11.20;;;11.80;99.90;;;;;;5245168;28;20026;-66
2023/10/03 05:38:01;;;;;;;19.75;11.88;;;11.90;99.90;;;;;;5231229;28;20050;-65
2023/10/03 05:40:37;;;;;;;23.05;11.15;;;11.90;99.90;;;;;;5265880;28;20226;-65
2023/10/03 05:43:17;;;;;;;37.63;12.23;;;11.90;99.90;;;;;;5244664;28;20074;-65
2023/10/03 05:45:49;;;;;;;25.42;12.95;;;11.90;99.90;;;;;;5238058;28;20303;-63
2023/10/03 05:48:47;;;;;;;24.75;11.35;;;12.00;99.90;;;;;;5246496;28;20392;-63
2023/10/03 05:51:26;;;;;;;27.10;12.00;;;12.10;99.90;;;;;;5260450;28;20458;-66
2023/10/03 05:53:59;;;;;;;20.08;11.10;;;12.20;99.90;;;;;;5265308;28;20028;-66
2023/10/03 05:56:32;;;;;;;19.83;11.20;;;12.30;99.90;;;;;;5226812;28;20040;-63
2023/10/03 05:59:04;;;;;;;21.73;10.90;;;12.40;99.90;;;;;;5234693;28;20031;-64
2023/10/03 06:01:35;;;;;;;16.27;10.68;;;12.50;99.90;;;;;;5232259;28;20288;-66
2023/10/03 06:04:08;;;;;;;20.52;10.90;;;12.50;99.90;;;;;;5221116;28;20032;-66
2023/10/03 06:06:45;;;;;;;19.60;11.15;;;12.60;99.90;;;;;;5208205;28;20044;-64
2023/10/03 06:09:16;;;;;;;21.63;11.10;;;12.60;99.90;;;;;;5223423;28;20043;-66
2023/10/03 06:11:51;;;;;;;18.90;10.88;;;12.70;99.90;;;;;;5204716;28;20041;-64
2023/10/03 06:14:23;;;;;;;15.75;10.15;;;12.90;99.90;;;;;;5232003;28;20209;-68
2023/10/03 06:16:57;;;;;;;17.50;10.55;;;13.00;99.90;;;;;;5202116;28;20322;-67
2023/10/03 06:19:30;;;;;;;19.10;11.55;;;13.20;99.90;;;;;;5204264;28;20041;-67
2023/10/03 06:22:05;;;;;;;16.48;10.77;;;13.40;99.90;;;;;;5205507;28;20232;-66
2023/10/03 06:24:36;;;;;;;18.58;10.82;;;13.50;99.90;;;;;;5234154;28;20032;-65
2023/10/03 06:27:11;;;;;;;18.15;9.95;;;13.60;99.90;;;;;;5238399;28;20043;-65
2023/10/03 06:29:43;;;;;;;18.83;9.38;;;13.70;99.90;;;;;;5221404;28;20029;-65
2023/10/03 06:32:20;;;;;;;21.38;10.02;;;13.80;99.90;;;;;;5225824;28;20031;-65
2023/10/03 06:34:54;;;;;;;17.42;9.85;;;13.90;99.90;;;;;;5223112;28;20329;-66
2023/10/03 06:37:30;;;;;;;13.75;8.75;;;14.00;99.90;;;;;;5205830;28;20036;-66
2023/10/03 06:40:06;;;;;;;17.77;10.02;;;14.00;99.90;;;;;;5223554;28;20066;-65
2023/10/03 06:42:40;;;;;;;16.15;7.60;;;14.10;99.90;;;;;;5224203;28;20020;-67
2023/10/03 06:45:21;;;;;;;15.40;10.00;;;14.40;99.90;;;;;;5220906;28;20027;-66
2023/10/03 06:47:54;;;;;;;17.42;8.80;;;14.70;99.90;;;;;;5207816;28;20040;-65
2023/10/03 06:50:28;;;;;;;19.73;9.85;;;15.10;99.90;;;;;;5222187;28;20628;-65
2023/10/03 06:53:05;;;;;;;15.98;8.20;;;15.30;99.90;;;;;;5174427;28;20679;-65
2023/10/03 06:55:42;;;;;;;18.15;10.32;;;15.50;99.90;;;;;;5232566;28;20045;-66
2023/10/03 06:58:21;;;;;;;14.30;9.73;;;15.90;99.90;;;;;;5250524;28;20244;-66
2023/10/03 07:00:56;;;;;;;14.90;9.32;;;16.10;99.90;;;;;;5224531;28;20316;-66
2023/10/03 07:03:29;;;;;;;17.38;9.90;;;16.30;99.90;;;;;;5261241;28;20047;-67
2023/10/03 07:06:03;;;;;;;19.55;9.43;;;16.50;99.90;;;;;;5234930;28;20059;-66
2023/10/03 07:08:43;;;;;;;18.98;11.43;;;16.30;99.90;;;;;;5242757;28;20036;-66
2023/10/03 07:11:17;;;;;;;18.65;9.93;;;16.60;99.90;;;;;;5221776;28;20040;-66
2023/10/03 07:13:54;;;;;;;15.57;8.67;;;17.00;99.90;;;;;;5233008;28;20273;-66
2023/10/03 07:16:25;;;;;;;19.27;9.48;;;17.20;99.90;;;;;;5241571;28;20049;-67
2023/10/03 07:18:57;;;;;;;15.98;8.85;;;17.60;1.00;;;;;;5263196;28;20346;-66
2023/10/03 07:21:37;;;;;;;15.30;9.02;;;17.60;92.50;;;;;;5223630;28;20038;-66
2023/10/03 07:24:14;;;;;;;15.73;8.45;;;17.80;1.00;;;;;;5241515;28;20028;-65
2023/10/03 07:26:46;;;;;;;14.30;8.27;;;17.80;1.00;;;;;;5243659;28;20032;-66
2023/10/03 07:29:17;;;;;;;14.15;8.07;;;17.90;1.00;;;;;;5261176;28;20036;-66
2023/10/03 07:31:49;;;;;;;15.32;8.20;;;18.20;1.00;;;;;;5253437;28;20035;-66
2023/10/03 07:34:23;;;;;;;14.90;8.00;;;18.50;1.00;;;;;;5241128;28;20028;-66
2023/10/03 07:36:54;;;;;;;14.75;7.78;;;18.70;1.00;;;;;;5243966;28;20251;-66
2023/10/03 07:39:26;;;;;;;12.20;8.05;;;18.90;1.00;;;;;;5262846;28;20043;-66
2023/10/03 07:42:05;;;;;;;13.93;8.00;;;19.10;1.00;;;;;;5216352;28;21163;-66
2023/10/03 07:44:37;;;;;;;13.52;7.75;;;19.50;99.90;;;;;;5227758;28;20220;-66
2023/10/03 07:47:11;;;;;;;12.25;7.25;;;19.50;1.00;;;;;;5230231;28;20028;-67
2023/10/03 07:49:42;;;;;;;14.38;7.40;;;19.40;99.90;;;;;;5245470;28;20031;-67
2023/10/03 07:52:20;;;;;;;10.90;6.20;;;19.70;99.90;;;;;;5239763;28;20036;-67
2023/10/03 07:54:54;;;;;;;12.45;6.57;;;19.90;99.90;;;;;;5224705;28;20178;-67
2023/10/03 07:57:28;;;;;;;11.77;6.55;;;19.70;18.80;;;;;;5259453;28;20228;-66
2023/10/03 08:00:03;;;;;;;11.10;6.82;;;19.90;99.90;;;;;;5225737;28;20450;-67
2023/10/03 08:02:43;;;;;;;11.63;6.68;;;20.00;99.90;;;;;;5236982;28;20237;-68
2023/10/03 08:05:17;;;;;;;11.88;6.88;;;19.90;99.90;;;;;;5218941;28;20032;-67
2023/10/03 08:07:48;;;;;;;15.25;6.85;;;20.20;48.20;;;;;;5186595;28;20029;-69
2023/10/03 08:10:20;;;;;;;13.32;7.55;;;20.30;1.00;;;;;;5185549;28;20559;-67
2023/10/03 08:12:54;;;;;;;12.85;7.18;;;20.40;1.00;;;;;;5234762;28;20041;-67
2023/10/03 08:15:32;;;;;;;10.93;6.13;;;20.70;1.00;;;;;;5195078;28;20310;-67
2023/10/03 08:18:17;;;;;;;11.23;7.13;;;21.10;99.90;;;;;;5228319;28;20034;-67
2023/10/03 08:20:53;;;;;;;;;;;21.10;1.00;;;;;;5237134;28;20042;-67
2023/10/03 08:23:24;;;;;;;11.05;5.38;;;20.80;1.00;;;;;;5239918;28;20189;-68
2023/10/03 08:26:02;;;;;;;12.18;6.53;;;20.90;75.10;;;;;;5233117;28;20024;-66
2023/10/03 08:28:38;;;;;;;10.77;5.90;;;21.20;99.90;;;;;;5239673;28;20047;-67
2023/10/03 08:31:12;;;;;;;10.88;5.78;;;21.40;99.90;;;;;;5214302;28;20358;-67
2023/10/03 08:33:44;;;;;;;11.32;6.82;;;21.60;1.00;;;;;;5209757;28;20052;-67
2023/10/03 08:36:21;;;;;;;11.75;6.18;;;21.50;1.00;;;;;;5224907;28;20319;-66
2023/10/03 08:39:04;;;;;;;10.70;5.75;;;21.80;1.00;;;;;;5221299;28;20324;-66
2023/10/03 08:42:15;;;;;;;13.32;6.25;;;22.10;1.00;;;;;;5229280;28;20305;-68
2023/10/03 08:44:54;;;;;;;9.88;5.80;;;22.40;99.90;;;;;;5238822;28;20040;-67
2023/10/03 08:47:38;;;;;;;11.52;7.40;;;22.60;54.10;;;;;;5218393;28;20039;-66
2023/10/03 08:50:29;;;;;;;10.07;5.53;;;22.30;1.00;;;;;;5210405;28;20314;-67
2023/10/03 08:53:18;;;;;;;11.77;5.70;;;22.30;99.90;;;;;;5221230;28;20329;-67
2023/10/03 08:55:57;;;;;;;10.90;6.20;;;22.60;1.00;;;;;;5221997;28;20202;-67
2023/10/03 08:58:32;;;;;;;11.40;6.25;;;22.80;1.00;;;;;;5185811;28;20044;-66
2023/10/03 09:01:07;;;;;;;11.75;6.65;;;22.90;1.00;;;;;;5229026;28;20047;-66
2023/10/03 09:03:48;;;;;;;11.68;6.22;;;22.90;1.00;;;;;;5237631;28;20210;-67
2023/10/03 09:06:19;;;;;;;10.88;5.65;;;22.80;1.00;;;;;;5226748;28;20361;-67
2023/10/03 09:09:08;;;;;;;12.52;6.65;;;22.60;1.00;;;;;;5241182;28;20036;-67
2023/10/03 09:11:51;;;;;;;10.20;5.47;;;22.80;1.00;;;;;;5208481;28;20336;-67
2023/10/03 09:14:23;;;;;;;12.80;6.03;;;22.60;1.00;;;;;;5225477;28;20028;-67
2023/10/03 09:16:59;;;;;;;10.52;6.20;;;22.50;1.00;;;;;;5198455;28;20162;-68
2023/10/03 09:19:46;;;;;;;8.98;6.40;;;22.70;1.00;;;;;;5236722;28;20269;-67
2023/10/03 09:22:31;;;;;;;12.38;6.63;;;22.80;1.00;;;;;;5218436;28;20217;-67
2023/10/03 09:25:07;;;;;;;13.27;6.38;;;22.20;1.00;;;;;;5217786;28;20028;-67
2023/10/03 09:27:41;;;;;;;11.85;6.53;;;22.10;1.00;;;;;;5224957;28;20036;-66
2023/10/03 09:30:22;;;;;;;12.68;6.75;;;22.40;1.00;;;;;;5216535;28;20284;-68
2023/10/03 09:32:57;;;;;;;9.13;6.20;;;22.80;1.00;;;;;;5205107;28;20044;-68
2023/10/03 09:35:28;;;;;;;11.68;6.43;;;23.20;1.00;;;;;;5242224;28;20021;-67
2023/10/03 09:38:06;;;;;;;11.50;6.10;;;23.50;1.00;;;;;;5225751;28;20375;-67
2023/10/03 09:40:52;;;;;;;9.82;5.80;;;23.60;1.00;;;;;;5232575;28;20033;-67
2023/10/03 09:43:27;;;;;;;11.63;6.45;;;24.10;1.00;;;;;;5205116;28;20033;-67
2023/10/03 09:46:00;;;;;;;14.32;6.35;;;24.50;99.90;;;;;;5235810;28;20032;-67
2023/10/03 09:48:31;;;;;;;14.77;5.95;;;24.20;99.90;;;;;;5226636;28;20040;-67
2023/10/03 09:51:05;;;;;;;10.95;6.18;;;24.40;99.90;;;;;;5227870;28;20040;-68
2023/10/03 09:53:47;;;;;;;14.38;6.47;;;24.90;99.90;;;;;;5225362;28;20099;-68
2023/10/03 09:56:23;;;;;;;11.43;6.75;;;25.30;1.00;;;;;;5240320;28;20040;-67
2023/10/03 09:59:00;;;;;;;10.32;5.95;;;25.40;1.00;;;;;;5223342;28;20261;-68
2023/10/03 10:01:36;;;;;;;12.40;6.30;;;26.00;1.00;;;;;;5211733;28;20047;-67
2023/10/03 10:04:09;;;;;;;13.05;5.97;;;26.80;99.90;;;;;;5239750;28;20028;-67
2023/10/03 10:06:52;;;;;;;12.00;5.63;;;26.50;19.80;;;;;;5223103;28;20033;-67
2023/10/03 10:09:35;;;;;;;10.52;5.80;;;27.30;67.60;;;;;;5205766;28;20037;-68
2023/10/03 10:12:23;;;;;;;10.20;5.68;;;27.40;1.00;;;;;;5210951;28;20036;-68
2023/10/03 10:15:00;;;;;;;14.57;6.28;;;27.70;1.00;;;;;;5207694;28;20117;-68
2023/10/03 10:17:54;;;;;;;9.27;5.68;;;27.60;1.00;;;;;;5221024;28;20070;-68
2023/10/03 10:20:32;;;;;;;12.57;6.15;;;27.80;99.90;;;;;;5223386;28;20032;-69
2023/10/03 10:25:51;;;;;;;8.65;4.97;;;28.40;99.90;;;;;;5220352;28;20028;-67
2023/10/03 10:28:31;;;;;;;11.45;6.32;;;29.00;99.90;;;;;;5225722;28;20032;-67
2023/10/03 10:31:16;;;;;;;8.93;4.90;;;28.70;99.90;;;;;;5233189;28;20272;-68
2023/10/03 10:33:55;;;;;;;11.98;5.55;;;29.00;99.90;;;;;;5209955;28;20064;-68
2023/10/03 10:37:02;;;;;;;10.63;5.32;;;29.80;99.90;;;;;;5242463;28;20034;-69
2023/10/03 10:43:04;;;;;;;13.00;5.60;;;31.40;1.00;;;;;;5227790;28;20067;-67
2023/10/03 10:45:42;;;;;;;11.60;6.00;;;31.10;1.00;;;;;;5198343;28;20032;-68
2023/10/03 10:48:18;;;;;;;9.57;5.20;;;31.60;1.00;;;;;;5221996;28;20035;-67
2023/10/03 10:51:07;;;;;;;9.20;5.20;;;29.90;1.00;;;;;;5208414;28;20032;-68
2023/10/03 10:53:43;;;;;;;7.05;4.60;;;30.30;1.00;;;;;;5221854;28;20037;-67
2023/10/03 10:56:15;;;;;;;9.00;5.57;;;30.30;1.00;;;;;;5203845;28;20035;-69
2023/10/03 10:58:53;;;;;;;13.13;5.38;;;29.70;1.00;;;;;;5239601;28;20264;-67
2023/10/03 11:01:24;;;;;;;9.27;5.00;;;30.20;1.00;;;;;;5202045;28;20044;-68
2023/10/03 11:03:56;;;;;;;9.45;4.97;;;31.20;1.00;;;;;;5223796;28;20062;-69
2023/10/03 11:06:28;;;;;;;8.98;5.07;;;31.40;1.00;;;;;;5224151;28;20515;-68
2023/10/03 11:09:03;;;;;;;9.02;5.28;;;31.10;1.00;;;;;;5224865;28;20033;-67
2023/10/03 11:11:41;;;;;;;11.63;5.88;;;31.00;1.00;;;;;;5216086;28;20024;-68
2023/10/03 11:14:33;;;;;;;9.45;5.25;;;30.20;1.00;;;;;;5221194;28;20384;-69
2023/10/03 11:17:10;;;;;;;11.02;4.93;;;29.50;1.00;;;;;;5219373;28;20040;-68
2023/10/03 11:19:46;;;;;;;13.02;5.20;;;30.80;1.00;;;;;;5221317;28;20040;-69
2023/10/03 11:22:18;;;;;;;10.27;5.57;;;31.70;1.00;;;;;;5224129;28;20294;-69
2023/10/03 11:24:55;;;;;;;12.90;5.95;;;31.40;1.00;;;;;;5223867;28;20034;-68
2023/10/03 11:27:29;;;;;;;8.63;5.25;;;31.80;1.00;;;;;;5217989;28;20051;-68
2023/10/03 11:30:17;;;;;;;10.40;5.13;;;31.70;1.00;;;;;;5224068;28;20037;-70
2023/10/03 11:32:49;;;;;;;10.35;5.85;;;31.50;1.00;;;;;;5224874;28;20039;-68
2023/10/03 11:35:21;;;;;;;12.20;5.53;;;31.10;1.00;;;;;;5237664;28;20045;-69
2023/10/03 11:37:54;;;;;;;12.60;5.28;;;31.60;1.00;;;;;;5233802;28;20559;-67
2023/10/03 11:40:27;;;;;;;8.50;5.50;;;32.50;1.00;;;;;;5223362;28;20047;-68
2023/10/03 11:43:08;;;;;;;10.05;5.35;;;32.70;1.00;;;;;;5205630;28;20288;-68
2023/10/03 11:45:39;;;;;;;11.63;6.10;;;33.10;1.00;;;;;;5219233;28;20344;-67
2023/10/03 11:48:22;;;;;;;10.82;5.85;;;33.50;1.00;;;;;;5214875;28;20044;-69
2023/10/03 11:50:58;;;;;;;10.98;5.90;;;32.60;1.00;;;;;;5234290;28;20154;-68
2023/10/03 11:53:31;;;;;;;11.73;5.70;;;32.40;1.00;;;;;;5244794;28;20044;-69
2023/10/03 11:56:03;;;;;;;11.55;6.18;;;31.60;1.00;;;;;;5240016;28;20524;-68
2023/10/03 11:58:35;;;;;;;11.70;5.40;;;31.10;1.00;;;;;;5230565;28;20043;-68
2023/10/03 12:01:12;;;;;;;9.90;4.85;;;31.60;1.00;;;;;;5235235;28;20345;-69
2023/10/03 12:03:45;;;;;;;8.65;5.18;;;32.50;1.00;;;;;;5246155;28;20380;-68
2023/10/03 12:06:17;;;;;;;10.52;5.85;;;32.00;1.00;;;;;;5238554;28;20040;-71
2023/10/03 12:08:51;;;;;;;9.88;5.68;;;31.30;1.00;;;;;;5241238;28;20349;-67
2023/10/03 12:11:25;;;;;;;10.35;5.85;;;31.80;1.00;;;;;;5249317;28;20042;-68
2023/10/03 12:13:59;;;;;;;;;;;32.70;1.00;;;;;;5211191;28;20044;-70
2023/10/03 12:16:31;;;;;;;10.15;5.13;;;32.90;1.00;;;;;;5204193;28;19920;-69
2023/10/03 12:19:02;;;;;;;11.65;5.93;;;32.90;1.00;;;;;;5217911;28;20040;-68
2023/10/03 12:21:37;;;;;;;9.30;5.57;;;33.30;1.00;;;;;;5245629;28;20544;-69
2023/10/03 12:24:10;;;;;;;10.27;5.38;;;32.50;1.00;;;;;;5219892;28;20039;-68
2023/10/03 12:26:44;;;;;;;13.80;5.55;;;32.40;1.00;;;;;;5226876;28;20028;-69
2023/10/03 12:29:21;;;;;;;7.03;4.90;;;33.60;1.00;;;;;;5237830;28;20368;-68
2023/10/03 12:31:55;;;;;;;9.45;5.40;;;34.20;1.00;;;;;;5240146;28;20168;-70
2023/10/03 12:34:29;;;;;;;10.40;5.50;;;33.70;1.00;;;;;;5204533;28;20039;-70
2023/10/03 12:37:04;;;;;;;;;;;33.30;1.00;;;;;;5245834;28;20036;-70
2023/10/03 12:39:43;;;;;;;9.55;6.03;;;34.10;1.00;;;;;;5245651;28;19939;-69
2023/10/03 12:42:15;;;;;;;8.55;5.10;;;33.60;1.00;;;;;;5212698;28;20036;-69
2023/10/03 12:44:46;;;;;;;9.43;5.25;;;33.40;1.00;;;;;;5207022;28;20040;-70
2023/10/03 12:47:18;;;;;;;8.52;5.43;;;33.50;1.00;;;;;;5224695;28;20034;-71
2023/10/03 12:49:49;;;;;;;8.02;4.90;;;33.60;1.00;;;;;;5227228;28;20028;-69
2023/10/03 12:52:23;;;;;;;11.55;5.82;;;34.20;1.00;;;;;;5208165;28;20049;-70
2023/10/03 12:54:55;;;;;;;10.77;4.82;;;34.50;1.00;;;;;;5218496;28;20284;-68
2023/10/03 12:57:30;;;;;;;7.90;5.55;;;35.30;1.00;;;;;;5247889;28;20036;-69
2023/10/03 13:00:01;;;;;;;8.95;5.47;;;35.30;1.00;;;;;;5222424;28;20051;-67
2023/10/03 13:02:37;;;;;;;9.07;5.30;;;34.40;1.00;;;;;;5236687;28;20233;-69
2023/10/03 13:05:12;;;;;;;9.40;5.40;;;33.40;1.00;;;;;;5264594;28;20345;-70
2023/10/03 13:07:50;;;;;;;16.05;5.25;;;33.10;1.00;;;;;;5258771;28;20039;-68
2023/10/03 13:10:27;;;;;;;10.00;4.75;;;32.40;1.00;;;;;;5234100;28;20067;-69
2023/10/03 13:12:59;;;;;;;7.13;4.97;;;31.70;99.90;;;;;;5247729;28;20074;-69
2023/10/03 13:15:32;;;;;;;8.38;4.93;;;31.80;99.90;;;;;;5245091;28;20028;-68
2023/10/03 13:18:07;;;;;;;10.00;4.97;;;32.30;1.00;;;;;;5246934;28;20058;-69
2023/10/03 13:20:42;;;;;;;10.00;5.35;;;31.80;99.90;;;;;;5274439;28;20048;-68
2023/10/03 13:23:14;;;;;;;11.10;5.53;;;31.50;99.90;;;;;;5260717;28;20044;-68
2023/10/03 13:25:45;;;;;;;13.98;5.65;;;31.60;99.90;;;;;;5262820;28;20218;-68
2023/10/03 13:28:20;;;;;;;8.82;5.55;;;32.20;1.00;;;;;;5242023;28;20149;-67
2023/10/03 13:30:52;;;;;;;8.85;5.05;;;32.90;1.00;;;;;;5250956;28;20034;-68
2023/10/03 13:33:23;;;;;;;8.93;4.40;;;33.40;1.00;;;;;;5265420;28;20035;-68